sensor_id;sensor_type;location;lat;lon;timestamp;P1;durP1;ratioP1;P2;durP2;ratioP2
21270;SDS011;10795;50.796;3.860;2023-12-29T00:00:45;9.98;;;1.75;;
21270;SDS011;10795;50.796;3.860;2023-12-29T00:03:13;10.15;;;1.70;;
21270;SDS011;10795;50.796;3.860;2023-12-29T00:05:39;7.63;;;1.48;;
21270;SDS011;10795;50.796;3.860;2023-12-29T00:08:08;9.82;;;1.55;;
21270;SDS011;10795;50.796;3.860;2023-12-29T00:10:33;12.07;;;2.97;;
21270;SDS011;10795;50.796;3.860;2023-12-29T00:12:59;11.10;;;1.80;;
21270;SDS011;10795;50.796;3.860;2023-12-29T00:15:25;13.07;;;2.00;;
21270;SDS011;10795;50.796;3.860;2023-12-29T00:17:51;6.68;;;1.35;;
21270;SDS011;10795;50.796;3.860;2023-12-29T00:20:18;8.20;;;1.52;;
21270;SDS011;10795;50.796;3.860;2023-12-29T00:22:43;10.63;;;1.60;;
21270;SDS011;10795;50.796;3.860;2023-12-29T00:25:11;12.02;;;1.60;;
21270;SDS011;10795;50.796;3.860;2023-12-29T00:27:37;15.15;;;1.88;;
21270;SDS011;10795;50.796;3.860;2023-12-29T00:30:03;7.20;;;1.55;;
21270;SDS011;10795;50.796;3.860;2023-12-29T00:32:29;12.55;;;1.30;;
21270;SDS011;10795;50.796;3.860;2023-12-29T00:34:56;7.70;;;1.27;;
21270;SDS011;10795;50.796;3.860;2023-12-29T00:37:21;9.70;;;1.55;;
21270;SDS011;10795;50.796;3.860;2023-12-29T00:39:47;7.53;;;1.50;;
21270;SDS011;10795;50.796;3.860;2023-12-29T00:42:15;11.00;;;1.85;;
21270;SDS011;10795;50.796;3.860;2023-12-29T00:44:41;12.82;;;1.67;;
21270;SDS011;10795;50.796;3.860;2023-12-29T00:47:12;17.85;;;2.72;;
21270;SDS011;10795;50.796;3.860;2023-12-29T00:49:38;9.55;;;1.65;;
21270;SDS011;10795;50.796;3.860;2023-12-29T00:52:05;12.38;;;2.15;;
21270;SDS011;10795;50.796;3.860;2023-12-29T00:54:31;9.25;;;1.50;;
21270;SDS011;10795;50.796;3.860;2023-12-29T00:56:57;16.55;;;1.80;;
21270;SDS011;10795;50.796;3.860;2023-12-29T00:59:22;7.13;;;1.80;;
21270;SDS011;10795;50.796;3.860;2023-12-29T01:01:48;11.15;;;1.83;;
21270;SDS011;10795;50.796;3.860;2023-12-29T01:04:14;9.50;;;1.52;;
21270;SDS011;10795;50.796;3.860;2023-12-29T01:06:40;17.88;;;1.92;;
21270;SDS011;10795;50.796;3.860;2023-12-29T01:09:08;10.80;;;1.73;;
21270;SDS011;10795;50.796;3.860;2023-12-29T01:11:35;10.88;;;1.50;;
21270;SDS011;10795;50.796;3.860;2023-12-29T01:14:01;12.10;;;1.50;;
21270;SDS011;10795;50.796;3.860;2023-12-29T01:16:27;14.23;;;1.65;;
21270;SDS011;10795;50.796;3.860;2023-12-29T01:18:53;13.63;;;2.17;;
21270;SDS011;10795;50.796;3.860;2023-12-29T01:21:18;9.38;;;1.98;;
21270;SDS011;10795;50.796;3.860;2023-12-29T01:23:46;11.48;;;1.80;;
21270;SDS011;10795;50.796;3.860;2023-12-29T01:26:12;10.20;;;1.67;;
21270;SDS011;10795;50.796;3.860;2023-12-29T01:28:40;12.35;;;2.03;;
21270;SDS011;10795;50.796;3.860;2023-12-29T01:31:08;13.93;;;1.60;;
21270;SDS011;10795;50.796;3.860;2023-12-29T01:33:36;10.70;;;1.33;;
21270;SDS011;10795;50.796;3.860;2023-12-29T01:36:02;12.32;;;1.83;;
21270;SDS011;10795;50.796;3.860;2023-12-29T01:38:28;10.90;;;1.35;;
21270;SDS011;10795;50.796;3.860;2023-12-29T01:40:56;12.77;;;2.20;;
21270;SDS011;10795;50.796;3.860;2023-12-29T01:43:22;6.60;;;1.15;;
21270;SDS011;10795;50.796;3.860;2023-12-29T01:45:47;12.88;;;1.50;;
21270;SDS011;10795;50.796;3.860;2023-12-29T01:48:13;6.45;;;2.10;;
21270;SDS011;10795;50.796;3.860;2023-12-29T01:50:39;7.78;;;1.67;;
21270;SDS011;10795;50.796;3.860;2023-12-29T01:53:06;10.25;;;1.75;;
21270;SDS011;10795;50.796;3.860;2023-12-29T01:55:32;8.75;;;1.65;;
21270;SDS011;10795;50.796;3.860;2023-12-29T01:57:58;9.52;;;1.35;;
21270;SDS011;10795;50.796;3.860;2023-12-29T02:00:25;10.27;;;2.20;;
21270;SDS011;10795;50.796;3.860;2023-12-29T02:02:51;9.48;;;1.73;;
21270;SDS011;10795;50.796;3.860;2023-12-29T02:05:18;10.63;;;1.70;;
21270;SDS011;10795;50.796;3.860;2023-12-29T02:07:46;6.70;;;1.40;;
21270;SDS011;10795;50.796;3.860;2023-12-29T02:10:17;10.85;;;1.58;;
21270;SDS011;10795;50.796;3.860;2023-12-29T02:12:43;13.93;;;1.85;;
21270;SDS011;10795;50.796;3.860;2023-12-29T02:15:12;6.18;;;1.23;;
21270;SDS011;10795;50.796;3.860;2023-12-29T02:17:45;6.60;;;1.30;;
21270;SDS011;10795;50.796;3.860;2023-12-29T02:20:28;10.32;;;1.65;;
21270;SDS011;10795;50.796;3.860;2023-12-29T02:22:55;9.95;;;1.42;;
21270;SDS011;10795;50.796;3.860;2023-12-29T02:25:20;8.77;;;2.05;;
21270;SDS011;10795;50.796;3.860;2023-12-29T02:27:50;13.18;;;2.38;;
21270;SDS011;10795;50.796;3.860;2023-12-29T02:30:22;5.70;;;1.25;;
21270;SDS011;10795;50.796;3.860;2023-12-29T02:32:53;9.05;;;1.58;;
21270;SDS011;10795;50.796;3.860;2023-12-29T02:35:24;11.35;;;2.00;;
21270;SDS011;10795;50.796;3.860;2023-12-29T02:37:53;8.35;;;1.63;;
21270;SDS011;10795;50.796;3.860;2023-12-29T02:40:20;8.82;;;1.50;;
21270;SDS011;10795;50.796;3.860;2023-12-29T02:42:46;9.77;;;1.85;;
21270;SDS011;10795;50.796;3.860;2023-12-29T02:45:13;8.98;;;1.75;;
21270;SDS011;10795;50.796;3.860;2023-12-29T02:47:42;10.60;;;2.25;;
21270;SDS011;10795;50.796;3.860;2023-12-29T02:50:09;7.68;;;1.50;;
21270;SDS011;10795;50.796;3.860;2023-12-29T02:52:35;10.30;;;1.90;;
21270;SDS011;10795;50.796;3.860;2023-12-29T02:55:02;8.85;;;1.67;;
21270;SDS011;10795;50.796;3.860;2023-12-29T02:57:29;11.85;;;2.05;;
21270;SDS011;10795;50.796;3.860;2023-12-29T02:59:55;10.50;;;1.67;;
21270;SDS011;10795;50.796;3.860;2023-12-29T03:02:21;15.07;;;2.08;;
21270;SDS011;10795;50.796;3.860;2023-12-29T03:04:48;7.35;;;1.48;;
21270;SDS011;10795;50.796;3.860;2023-12-29T03:07:15;12.23;;;1.92;;
21270;SDS011;10795;50.796;3.860;2023-12-29T03:09:41;7.60;;;1.65;;
21270;SDS011;10795;50.796;3.860;2023-12-29T03:12:07;9.32;;;2.03;;
21270;SDS011;10795;50.796;3.860;2023-12-29T03:14:35;10.40;;;1.90;;
21270;SDS011;10795;50.796;3.860;2023-12-29T03:17:01;13.63;;;2.47;;
21270;SDS011;10795;50.796;3.860;2023-12-29T03:19:27;14.77;;;2.35;;
21270;SDS011;10795;50.796;3.860;2023-12-29T03:21:53;14.20;;;2.92;;
21270;SDS011;10795;50.796;3.860;2023-12-29T03:24:19;9.65;;;2.25;;
21270;SDS011;10795;50.796;3.860;2023-12-29T03:26:47;10.65;;;2.20;;
21270;SDS011;10795;50.796;3.860;2023-12-29T03:29:13;12.73;;;2.20;;
21270;SDS011;10795;50.796;3.860;2023-12-29T03:31:39;18.48;;;2.33;;
21270;SDS011;10795;50.796;3.860;2023-12-29T03:34:05;11.48;;;2.60;;
21270;SDS011;10795;50.796;3.860;2023-12-29T03:36:31;12.23;;;1.92;;
21270;SDS011;10795;50.796;3.860;2023-12-29T03:38:59;11.23;;;2.13;;
21270;SDS011;10795;50.796;3.860;2023-12-29T03:41:28;9.23;;;1.67;;
21270;SDS011;10795;50.796;3.860;2023-12-29T03:43:56;9.70;;;1.50;;
21270;SDS011;10795;50.796;3.860;2023-12-29T03:46:22;11.45;;;1.63;;
21270;SDS011;10795;50.796;3.860;2023-12-29T03:48:49;12.48;;;2.00;;
21270;SDS011;10795;50.796;3.860;2023-12-29T03:51:15;10.80;;;1.60;;
21270;SDS011;10795;50.796;3.860;2023-12-29T03:53:45;9.93;;;1.70;;
21270;SDS011;10795;50.796;3.860;2023-12-29T03:56:14;8.15;;;1.58;;
21270;SDS011;10795;50.796;3.860;2023-12-29T03:58:44;8.98;;;1.50;;
21270;SDS011;10795;50.796;3.860;2023-12-29T04:01:10;10.32;;;1.60;;
21270;SDS011;10795;50.796;3.860;2023-12-29T04:03:40;11.90;;;1.67;;
21270;SDS011;10795;50.796;3.860;2023-12-29T04:06:07;7.10;;;1.23;;
21270;SDS011;10795;50.796;3.860;2023-12-29T04:08:33;10.77;;;1.50;;
21270;SDS011;10795;50.796;3.860;2023-12-29T04:10:59;7.55;;;1.75;;
21270;SDS011;10795;50.796;3.860;2023-12-29T04:13:30;9.40;;;1.75;;
21270;SDS011;10795;50.796;3.860;2023-12-29T04:15:56;9.80;;;1.67;;
21270;SDS011;10795;50.796;3.860;2023-12-29T04:18:23;5.70;;;1.38;;
21270;SDS011;10795;50.796;3.860;2023-12-29T04:20:51;14.27;;;2.25;;
21270;SDS011;10795;50.796;3.860;2023-12-29T04:23:17;10.15;;;1.77;;
21270;SDS011;10795;50.796;3.860;2023-12-29T04:25:45;9.18;;;1.42;;
21270;SDS011;10795;50.796;3.860;2023-12-29T04:28:11;15.35;;;2.00;;
21270;SDS011;10795;50.796;3.860;2023-12-29T04:30:37;10.90;;;1.50;;
21270;SDS011;10795;50.796;3.860;2023-12-29T04:33:03;14.77;;;1.70;;
21270;SDS011;10795;50.796;3.860;2023-12-29T04:35:30;13.80;;;1.55;;
21270;SDS011;10795;50.796;3.860;2023-12-29T04:37:58;11.55;;;1.80;;
21270;SDS011;10795;50.796;3.860;2023-12-29T04:40:24;10.20;;;1.27;;
21270;SDS011;10795;50.796;3.860;2023-12-29T04:42:49;6.72;;;1.40;;
21270;SDS011;10795;50.796;3.860;2023-12-29T04:45:15;6.50;;;1.65;;
21270;SDS011;10795;50.796;3.860;2023-12-29T04:47:41;12.52;;;1.58;;
21270;SDS011;10795;50.796;3.860;2023-12-29T04:50:07;7.40;;;1.42;;
21270;SDS011;10795;50.796;3.860;2023-12-29T04:52:33;6.97;;;1.60;;
21270;SDS011;10795;50.796;3.860;2023-12-29T04:55:02;7.82;;;1.48;;
21270;SDS011;10795;50.796;3.860;2023-12-29T04:57:28;9.98;;;1.60;;
21270;SDS011;10795;50.796;3.860;2023-12-29T04:59:53;10.15;;;1.90;;
21270;SDS011;10795;50.796;3.860;2023-12-29T05:02:19;10.65;;;1.70;;
21270;SDS011;10795;50.796;3.860;2023-12-29T05:04:45;7.88;;;1.55;;
21270;SDS011;10795;50.796;3.860;2023-12-29T05:07:11;11.95;;;1.33;;
21270;SDS011;10795;50.796;3.860;2023-12-29T05:09:37;9.95;;;1.73;;
21270;SDS011;10795;50.796;3.860;2023-12-29T05:12:03;11.00;;;1.60;;
21270;SDS011;10795;50.796;3.860;2023-12-29T05:14:29;9.63;;;1.67;;
21270;SDS011;10795;50.796;3.860;2023-12-29T05:16:55;11.73;;;1.65;;
21270;SDS011;10795;50.796;3.860;2023-12-29T05:19:20;9.50;;;1.55;;
21270;SDS011;10795;50.796;3.860;2023-12-29T05:21:47;7.18;;;1.25;;
21270;SDS011;10795;50.796;3.860;2023-12-29T05:24:17;8.82;;;1.27;;
21270;SDS011;10795;50.796;3.860;2023-12-29T05:26:43;8.50;;;1.83;;
21270;SDS011;10795;50.796;3.860;2023-12-29T05:29:08;8.70;;;1.30;;
21270;SDS011;10795;50.796;3.860;2023-12-29T05:31:34;6.68;;;1.40;;
21270;SDS011;10795;50.796;3.860;2023-12-29T05:34:00;10.60;;;1.70;;
21270;SDS011;10795;50.796;3.860;2023-12-29T05:36:26;15.40;;;1.60;;
21270;SDS011;10795;50.796;3.860;2023-12-29T05:38:51;8.43;;;1.40;;
21270;SDS011;10795;50.796;3.860;2023-12-29T05:41:18;13.73;;;2.15;;
21270;SDS011;10795;50.796;3.860;2023-12-29T05:43:44;7.68;;;1.75;;
21270;SDS011;10795;50.796;3.860;2023-12-29T05:46:10;13.30;;;2.15;;
21270;SDS011;10795;50.796;3.860;2023-12-29T05:48:37;10.40;;;1.42;;
21270;SDS011;10795;50.796;3.860;2023-12-29T05:51:09;13.50;;;1.60;;
21270;SDS011;10795;50.796;3.860;2023-12-29T05:53:36;15.73;;;2.08;;
21270;SDS011;10795;50.796;3.860;2023-12-29T05:56:04;12.15;;;2.13;;
21270;SDS011;10795;50.796;3.860;2023-12-29T05:58:30;10.77;;;1.55;;
21270;SDS011;10795;50.796;3.860;2023-12-29T06:00:56;11.30;;;1.52;;
21270;SDS011;10795;50.796;3.860;2023-12-29T06:03:21;8.73;;;1.67;;
21270;SDS011;10795;50.796;3.860;2023-12-29T06:05:47;10.32;;;2.08;;
21270;SDS011;10795;50.796;3.860;2023-12-29T06:08:14;7.93;;;1.50;;
21270;SDS011;10795;50.796;3.860;2023-12-29T06:10:40;9.98;;;1.48;;
21270;SDS011;10795;50.796;3.860;2023-12-29T06:13:06;8.32;;;1.30;;
21270;SDS011;10795;50.796;3.860;2023-12-29T06:15:31;11.05;;;1.73;;
21270;SDS011;10795;50.796;3.860;2023-12-29T06:17:57;6.90;;;1.50;;
21270;SDS011;10795;50.796;3.860;2023-12-29T06:20:23;5.95;;;1.92;;
21270;SDS011;10795;50.796;3.860;2023-12-29T06:22:49;9.80;;;1.60;;
21270;SDS011;10795;50.796;3.860;2023-12-29T06:25:15;9.90;;;1.70;;
21270;SDS011;10795;50.796;3.860;2023-12-29T06:27:41;10.43;;;1.83;;
21270;SDS011;10795;50.796;3.860;2023-12-29T06:30:07;10.82;;;1.60;;
21270;SDS011;10795;50.796;3.860;2023-12-29T06:32:37;12.23;;;1.63;;
21270;SDS011;10795;50.796;3.860;2023-12-29T06:35:03;8.68;;;1.60;;
21270;SDS011;10795;50.796;3.860;2023-12-29T06:37:32;8.75;;;1.40;;
21270;SDS011;10795;50.796;3.860;2023-12-29T06:39:58;11.55;;;1.65;;
21270;SDS011;10795;50.796;3.860;2023-12-29T06:42:24;10.23;;;2.00;;
21270;SDS011;10795;50.796;3.860;2023-12-29T06:44:50;11.10;;;2.10;;
21270;SDS011;10795;50.796;3.860;2023-12-29T06:47:18;10.43;;;1.90;;
21270;SDS011;10795;50.796;3.860;2023-12-29T06:49:44;4.75;;;1.10;;
21270;SDS011;10795;50.796;3.860;2023-12-29T06:52:10;8.15;;;1.90;;
21270;SDS011;10795;50.796;3.860;2023-12-29T06:54:36;10.48;;;1.75;;
21270;SDS011;10795;50.796;3.860;2023-12-29T06:57:02;9.30;;;1.25;;
21270;SDS011;10795;50.796;3.860;2023-12-29T06:59:27;8.27;;;2.35;;
21270;SDS011;10795;50.796;3.860;2023-12-29T07:01:53;6.53;;;2.10;;
21270;SDS011;10795;50.796;3.860;2023-12-29T07:04:21;9.80;;;2.88;;
21270;SDS011;10795;50.796;3.860;2023-12-29T07:06:54;5.10;;;2.40;;
21270;SDS011;10795;50.796;3.860;2023-12-29T07:09:22;5.38;;;1.85;;
21270;SDS011;10795;50.796;3.860;2023-12-29T07:11:51;7.13;;;2.40;;
21270;SDS011;10795;50.796;3.860;2023-12-29T07:14:29;9.23;;;2.33;;
21270;SDS011;10795;50.796;3.860;2023-12-29T07:17:06;7.95;;;3.00;;
21270;SDS011;10795;50.796;3.860;2023-12-29T07:19:43;9.38;;;3.55;;
21270;SDS011;10795;50.796;3.860;2023-12-29T07:22:09;8.77;;;4.22;;
21270;SDS011;10795;50.796;3.860;2023-12-29T07:24:51;8.45;;;4.00;;
21270;SDS011;10795;50.796;3.860;2023-12-29T07:27:18;8.63;;;3.53;;
21270;SDS011;10795;50.796;3.860;2023-12-29T07:29:51;6.35;;;3.53;;
21270;SDS011;10795;50.796;3.860;2023-12-29T07:32:20;7.30;;;3.55;;
21270;SDS011;10795;50.796;3.860;2023-12-29T07:35:08;9.45;;;3.72;;
21270;SDS011;10795;50.796;3.860;2023-12-29T07:37:37;7.35;;;3.47;;
21270;SDS011;10795;50.796;3.860;2023-12-29T07:40:19;6.25;;;3.40;;
21270;SDS011;10795;50.796;3.860;2023-12-29T07:42:46;6.25;;;3.30;;
21270;SDS011;10795;50.796;3.860;2023-12-29T07:45:16;9.05;;;2.75;;
21270;SDS011;10795;50.796;3.860;2023-12-29T07:48:06;9.13;;;2.92;;
21270;SDS011;10795;50.796;3.860;2023-12-29T07:50:37;12.57;;;3.25;;
21270;SDS011;10795;50.796;3.860;2023-12-29T07:53:19;13.77;;;4.28;;
21270;SDS011;10795;50.796;3.860;2023-12-29T07:55:45;11.40;;;3.67;;
21270;SDS011;10795;50.796;3.860;2023-12-29T07:58:14;12.33;;;3.70;;
21270;SDS011;10795;50.796;3.860;2023-12-29T08:00:49;10.85;;;3.40;;
21270;SDS011;10795;50.796;3.860;2023-12-29T08:03:23;11.27;;;3.42;;
21270;SDS011;10795;50.796;3.860;2023-12-29T08:06:03;15.90;;;3.22;;
21270;SDS011;10795;50.796;3.860;2023-12-29T08:08:54;16.23;;;3.65;;
21270;SDS011;10795;50.796;3.860;2023-12-29T08:11:49;12.38;;;2.85;;
21270;SDS011;10795;50.796;3.860;2023-12-29T08:14:21;13.07;;;2.00;;
21270;SDS011;10795;50.796;3.860;2023-12-29T08:16:48;8.90;;;1.75;;
21270;SDS011;10795;50.796;3.860;2023-12-29T08:19:16;10.65;;;2.05;;
21270;SDS011;10795;50.796;3.860;2023-12-29T08:21:42;9.57;;;1.52;;
21270;SDS011;10795;50.796;3.860;2023-12-29T08:24:20;9.88;;;1.80;;
21270;SDS011;10795;50.796;3.860;2023-12-29T08:26:53;10.45;;;1.83;;
21270;SDS011;10795;50.796;3.860;2023-12-29T08:29:22;11.30;;;1.80;;
21270;SDS011;10795;50.796;3.860;2023-12-29T08:32:03;12.77;;;1.42;;
21270;SDS011;10795;50.796;3.860;2023-12-29T08:34:29;10.40;;;1.35;;
21270;SDS011;10795;50.796;3.860;2023-12-29T08:36:55;18.33;;;1.80;;
21270;SDS011;10795;50.796;3.860;2023-12-29T08:39:21;10.20;;;1.48;;
21270;SDS011;10795;50.796;3.860;2023-12-29T08:41:47;11.13;;;1.60;;
21270;SDS011;10795;50.796;3.860;2023-12-29T08:44:14;7.38;;;1.63;;
21270;SDS011;10795;50.796;3.860;2023-12-29T08:46:41;16.00;;;2.65;;
21270;SDS011;10795;50.796;3.860;2023-12-29T08:49:07;7.07;;;2.92;;
21270;SDS011;10795;50.796;3.860;2023-12-29T08:51:33;8.32;;;2.72;;
21270;SDS011;10795;50.796;3.860;2023-12-29T08:53:59;10.90;;;2.97;;
21270;SDS011;10795;50.796;3.860;2023-12-29T08:56:25;10.75;;;2.85;;
21270;SDS011;10795;50.796;3.860;2023-12-29T08:58:51;6.20;;;1.58;;
21270;SDS011;10795;50.796;3.860;2023-12-29T09:01:17;8.43;;;1.73;;
21270;SDS011;10795;50.796;3.860;2023-12-29T09:03:44;3.15;;;1.20;;
21270;SDS011;10795;50.796;3.860;2023-12-29T09:06:10;5.30;;;1.30;;
21270;SDS011;10795;50.796;3.860;2023-12-29T09:08:39;3.55;;;0.88;;
21270;SDS011;10795;50.796;3.860;2023-12-29T09:11:05;2.40;;;1.15;;
21270;SDS011;10795;50.796;3.860;2023-12-29T09:13:33;2.45;;;0.90;;
21270;SDS011;10795;50.796;3.860;2023-12-29T09:16:01;4.03;;;0.75;;
21270;SDS011;10795;50.796;3.860;2023-12-29T09:18:34;6.18;;;1.10;;
21270;SDS011;10795;50.796;3.860;2023-12-29T09:21:02;3.15;;;1.42;;
21270;SDS011;10795;50.796;3.860;2023-12-29T09:23:28;7.55;;;1.83;;
21270;SDS011;10795;50.796;3.860;2023-12-29T09:25:57;6.20;;;2.20;;
21270;SDS011;10795;50.796;3.860;2023-12-29T09:28:23;9.65;;;2.58;;
21270;SDS011;10795;50.796;3.860;2023-12-29T09:30:49;9.38;;;2.83;;
21270;SDS011;10795;50.796;3.860;2023-12-29T09:33:17;11.15;;;3.30;;
21270;SDS011;10795;50.796;3.860;2023-12-29T09:35:42;13.60;;;2.78;;
21270;SDS011;10795;50.796;3.860;2023-12-29T09:38:08;7.95;;;1.73;;
21270;SDS011;10795;50.796;3.860;2023-12-29T09:40:35;6.35;;;1.65;;
21270;SDS011;10795;50.796;3.860;2023-12-29T09:43:01;10.68;;;2.60;;
21270;SDS011;10795;50.796;3.860;2023-12-29T09:45:29;10.73;;;2.13;;
21270;SDS011;10795;50.796;3.860;2023-12-29T09:47:58;11.38;;;2.28;;
21270;SDS011;10795;50.796;3.860;2023-12-29T09:50:28;7.95;;;2.53;;
21270;SDS011;10795;50.796;3.860;2023-12-29T09:52:53;8.50;;;2.50;;
21270;SDS011;10795;50.796;3.860;2023-12-29T09:55:20;10.00;;;2.25;;
21270;SDS011;10795;50.796;3.860;2023-12-29T09:57:46;16.13;;;2.78;;
21270;SDS011;10795;50.796;3.860;2023-12-29T10:00:16;9.52;;;2.28;;
21270;SDS011;10795;50.796;3.860;2023-12-29T10:02:43;9.75;;;2.58;;
21270;SDS011;10795;50.796;3.860;2023-12-29T10:05:09;11.48;;;2.30;;
21270;SDS011;10795;50.796;3.860;2023-12-29T10:07:36;11.02;;;1.85;;
21270;SDS011;10795;50.796;3.860;2023-12-29T10:10:06;10.27;;;1.85;;
21270;SDS011;10795;50.796;3.860;2023-12-29T10:12:37;13.52;;;2.70;;
21270;SDS011;10795;50.796;3.860;2023-12-29T10:15:05;8.97;;;2.40;;
21270;SDS011;10795;50.796;3.860;2023-12-29T10:17:36;8.50;;;2.28;;
21270;SDS011;10795;50.796;3.860;2023-12-29T10:23:04;9.43;;;2.53;;
21270;SDS011;10795;50.796;3.860;2023-12-29T10:25:42;7.97;;;1.85;;
21270;SDS011;10795;50.796;3.860;2023-12-29T10:28:09;6.25;;;1.67;;
21270;SDS011;10795;50.796;3.860;2023-12-29T10:33:05;7.05;;;1.65;;
21270;SDS011;10795;50.796;3.860;2023-12-29T10:35:31;12.88;;;1.80;;
21270;SDS011;10795;50.796;3.860;2023-12-29T10:38:07;5.03;;;1.90;;
21270;SDS011;10795;50.796;3.860;2023-12-29T10:40:38;8.80;;;1.77;;
21270;SDS011;10795;50.796;3.860;2023-12-29T10:44:06;9.93;;;1.90;;
21270;SDS011;10795;50.796;3.860;2023-12-29T10:46:32;7.63;;;2.58;;
21270;SDS011;10795;50.796;3.860;2023-12-29T10:51:38;12.87;;;2.30;;
21270;SDS011;10795;50.796;3.860;2023-12-29T10:54:07;8.95;;;1.90;;
21270;SDS011;10795;50.796;3.860;2023-12-29T10:56:44;6.97;;;2.20;;
21270;SDS011;10795;50.796;3.860;2023-12-29T10:59:10;13.85;;;2.50;;
21270;SDS011;10795;50.796;3.860;2023-12-29T11:01:38;6.28;;;1.55;;
21270;SDS011;10795;50.796;3.860;2023-12-29T11:04:04;10.65;;;1.88;;
21270;SDS011;10795;50.796;3.860;2023-12-29T11:06:44;8.90;;;1.75;;
21270;SDS011;10795;50.796;3.860;2023-12-29T11:09:12;6.55;;;1.80;;
21270;SDS011;10795;50.796;3.860;2023-12-29T11:11:38;6.97;;;1.40;;
21270;SDS011;10795;50.796;3.860;2023-12-29T11:14:04;8.40;;;1.98;;
21270;SDS011;10795;50.796;3.860;2023-12-29T11:16:30;8.48;;;1.58;;
21270;SDS011;10795;50.796;3.860;2023-12-29T11:18:59;11.90;;;1.63;;
21270;SDS011;10795;50.796;3.860;2023-12-29T11:21:29;5.35;;;1.60;;
21270;SDS011;10795;50.796;3.860;2023-12-29T11:23:57;5.70;;;1.48;;
21270;SDS011;10795;50.796;3.860;2023-12-29T11:26:23;8.23;;;1.95;;
21270;SDS011;10795;50.796;3.860;2023-12-29T11:28:51;10.30;;;2.00;;
21270;SDS011;10795;50.796;3.860;2023-12-29T11:31:18;7.18;;;2.03;;
21270;SDS011;10795;50.796;3.860;2023-12-29T11:33:52;8.30;;;2.03;;
21270;SDS011;10795;50.796;3.860;2023-12-29T11:36:28;5.63;;;2.08;;
21270;SDS011;10795;50.796;3.860;2023-12-29T11:39:03;7.28;;;2.20;;
21270;SDS011;10795;50.796;3.860;2023-12-29T11:44:42;7.55;;;2.20;;
21270;SDS011;10795;50.796;3.860;2023-12-29T11:50:26;9.38;;;3.45;;
21270;SDS011;10795;50.796;3.860;2023-12-29T11:52:53;7.53;;;3.20;;
21270;SDS011;10795;50.796;3.860;2023-12-29T11:55:19;8.23;;;2.80;;
21270;SDS011;10795;50.796;3.860;2023-12-29T11:57:46;6.82;;;2.60;;
21270;SDS011;10795;50.796;3.860;2023-12-29T12:00:12;5.20;;;2.40;;
21270;SDS011;10795;50.796;3.860;2023-12-29T12:02:40;6.45;;;2.72;;
21270;SDS011;10795;50.796;3.860;2023-12-29T12:05:08;6.32;;;2.78;;
21270;SDS011;10795;50.796;3.860;2023-12-29T12:12:51;2.90;;;1.63;;
21270;SDS011;10795;50.796;3.860;2023-12-29T12:17:56;6.03;;;2.53;;
21270;SDS011;10795;50.796;3.860;2023-12-29T12:20:23;2.90;;;2.03;;
21270;SDS011;10795;50.796;3.860;2023-12-29T12:22:59;7.35;;;2.10;;
21270;SDS011;10795;50.796;3.860;2023-12-29T12:25:26;3.60;;;2.00;;
21270;SDS011;10795;50.796;3.860;2023-12-29T12:27:56;1.92;;;1.10;;
21270;SDS011;10795;50.796;3.860;2023-12-29T12:30:22;2.40;;;1.67;;
21270;SDS011;10795;50.796;3.860;2023-12-29T12:32:58;4.97;;;1.65;;
21270;SDS011;10795;50.796;3.860;2023-12-29T12:35:24;4.53;;;1.90;;
21270;SDS011;10795;50.796;3.860;2023-12-29T12:40:34;7.22;;;2.08;;
21270;SDS011;10795;50.796;3.860;2023-12-29T12:43:01;7.90;;;2.65;;
21270;SDS011;10795;50.796;3.860;2023-12-29T12:45:33;6.03;;;2.33;;
21270;SDS011;10795;50.796;3.860;2023-12-29T12:50:46;5.60;;;2.47;;
21270;SDS011;10795;50.796;3.860;2023-12-29T12:53:14;7.03;;;2.63;;
21270;SDS011;10795;50.796;3.860;2023-12-29T12:55:49;6.05;;;2.30;;
21270;SDS011;10795;50.796;3.860;2023-12-29T13:00:42;7.47;;;1.40;;
21270;SDS011;10795;50.796;3.860;2023-12-29T13:03:09;3.95;;;1.30;;
21270;SDS011;10795;50.796;3.860;2023-12-29T13:05:35;5.70;;;0.85;;
21270;SDS011;10795;50.796;3.860;2023-12-29T13:08:04;5.05;;;0.95;;
21270;SDS011;10795;50.796;3.860;2023-12-29T13:10:34;5.65;;;1.00;;
21270;SDS011;10795;50.796;3.860;2023-12-29T13:13:05;3.40;;;1.02;;
21270;SDS011;10795;50.796;3.860;2023-12-29T13:15:31;3.92;;;1.10;;
21270;SDS011;10795;50.796;3.860;2023-12-29T13:17:56;4.18;;;1.15;;
21270;SDS011;10795;50.796;3.860;2023-12-29T13:20:24;3.75;;;1.10;;
21270;SDS011;10795;50.796;3.860;2023-12-29T13:22:50;5.43;;;1.70;;
21270;SDS011;10795;50.796;3.860;2023-12-29T13:25:28;2.47;;;0.90;;
21270;SDS011;10795;50.796;3.860;2023-12-29T13:27:53;3.25;;;1.05;;
21270;SDS011;10795;50.796;3.860;2023-12-29T13:30:20;4.75;;;1.13;;
21270;SDS011;10795;50.796;3.860;2023-12-29T13:32:47;6.35;;;1.60;;
21270;SDS011;10795;50.796;3.860;2023-12-29T13:35:20;1.63;;;1.25;;
21270;SDS011;10795;50.796;3.860;2023-12-29T13:38:11;4.50;;;1.70;;
21270;SDS011;10795;50.796;3.860;2023-12-29T13:40:51;8.75;;;1.58;;
21270;SDS011;10795;50.796;3.860;2023-12-29T13:43:26;4.95;;;1.20;;
21270;SDS011;10795;50.796;3.860;2023-12-29T13:45:55;3.53;;;1.20;;
21270;SDS011;10795;50.796;3.860;2023-12-29T13:48:22;4.82;;;1.27;;
21270;SDS011;10795;50.796;3.860;2023-12-29T13:50:50;5.05;;;1.20;;
21270;SDS011;10795;50.796;3.860;2023-12-29T13:53:19;3.15;;;1.20;;
21270;SDS011;10795;50.796;3.860;2023-12-29T13:55:46;5.32;;;1.60;;
21270;SDS011;10795;50.796;3.860;2023-12-29T13:58:12;5.55;;;1.88;;
21270;SDS011;10795;50.796;3.860;2023-12-29T14:00:45;9.02;;;2.00;;
21270;SDS011;10795;50.796;3.860;2023-12-29T14:03:26;8.65;;;2.50;;
21270;SDS011;10795;50.796;3.860;2023-12-29T14:06:00;5.50;;;2.03;;
21270;SDS011;10795;50.796;3.860;2023-12-29T14:08:33;10.02;;;2.15;;
21270;SDS011;10795;50.796;3.860;2023-12-29T14:11:10;5.57;;;2.50;;
21270;SDS011;10795;50.796;3.860;2023-12-29T14:13:45;8.13;;;3.05;;
21270;SDS011;10795;50.796;3.860;2023-12-29T14:16:13;7.38;;;2.92;;
21270;SDS011;10795;50.796;3.860;2023-12-29T14:26:53;3.33;;;1.50;;
21270;SDS011;10795;50.796;3.860;2023-12-29T14:31:50;3.72;;;1.65;;
21270;SDS011;10795;50.796;3.860;2023-12-29T14:34:17;4.80;;;1.50;;
21270;SDS011;10795;50.796;3.860;2023-12-29T14:36:44;3.47;;;1.40;;
21270;SDS011;10795;50.796;3.860;2023-12-29T14:39:13;5.53;;;1.20;;
21270;SDS011;10795;50.796;3.860;2023-12-29T14:41:40;3.70;;;1.52;;
21270;SDS011;10795;50.796;3.860;2023-12-29T14:44:07;3.20;;;1.33;;
21270;SDS011;10795;50.796;3.860;2023-12-29T14:46:33;6.05;;;1.50;;
21270;SDS011;10795;50.796;3.860;2023-12-29T14:49:01;2.78;;;1.45;;
21270;SDS011;10795;50.796;3.860;2023-12-29T14:51:27;5.90;;;1.35;;
21270;SDS011;10795;50.796;3.860;2023-12-29T14:53:53;4.95;;;1.38;;
21270;SDS011;10795;50.796;3.860;2023-12-29T14:56:19;8.73;;;1.45;;
21270;SDS011;10795;50.796;3.860;2023-12-29T14:58:45;7.60;;;1.48;;
21270;SDS011;10795;50.796;3.860;2023-12-29T15:01:12;6.80;;;1.70;;
21270;SDS011;10795;50.796;3.860;2023-12-29T15:03:38;5.70;;;1.95;;
21270;SDS011;10795;50.796;3.860;2023-12-29T15:06:04;5.40;;;1.33;;
21270;SDS011;10795;50.796;3.860;2023-12-29T15:08:30;6.20;;;1.42;;
21270;SDS011;10795;50.796;3.860;2023-12-29T15:11:03;5.57;;;1.33;;
21270;SDS011;10795;50.796;3.860;2023-12-29T15:13:30;2.88;;;1.15;;
21270;SDS011;10795;50.796;3.860;2023-12-29T15:15:58;6.18;;;1.52;;
21270;SDS011;10795;50.796;3.860;2023-12-29T15:18:25;5.95;;;1.38;;
21270;SDS011;10795;50.796;3.860;2023-12-29T15:20:51;11.00;;;2.17;;
21270;SDS011;10795;50.796;3.860;2023-12-29T15:23:17;9.57;;;1.73;;
21270;SDS011;10795;50.796;3.860;2023-12-29T15:25:43;4.57;;;1.42;;
21270;SDS011;10795;50.796;3.860;2023-12-29T15:28:09;5.85;;;1.48;;
21270;SDS011;10795;50.796;3.860;2023-12-29T15:30:35;6.97;;;1.58;;